Time;durP1;ratioP1;P1;durP2;ratioP2;P2;SDS_P1;SDS_P2;PMS_P1;PMS_P2;Temp;Humidity;BMP_temperature;BMP_pressure;BME280_temperature;BME280_humidity;BME280_pressure;Samples;Min_cycle;Max_cycle;Signal;HPM_P1;HPM_P2
2020/12/21 00:01:49;;;;;;;10.32;5.72;;;0.80;99.90;;;;;;4950370;29;20031;-77
2020/12/21 00:04:15;;;;;;;14.35;7.15;;;0.90;99.90;;;;;;4954342;29;20050;-77
2020/12/21 00:06:41;;;;;;;13.98;6.63;;;0.90;99.90;;;;;;4956219;29;20114;-76
2020/12/21 00:09:06;;;;;;;15.13;6.80;;;0.90;99.90;;;;;;4944338;28;20433;-76
2020/12/21 00:11:37;;;;;;;12.85;5.82;;;0.90;99.90;;;;;;4922747;29;20506;-77
2020/12/21 00:14:04;;;;;;;10.90;6.07;;;0.90;99.90;;;;;;4948386;29;20042;-77
2020/12/21 00:16:38;;;;;;;13.02;6.50;;;0.90;99.90;;;;;;4954843;28;20486;-77
2020/12/21 00:19:03;;;;;;;13.85;6.47;;;1.00;99.90;;;;;;4949091;28;20441;-78
2020/12/21 00:21:30;;;;;;;15.05;6.53;;;1.00;99.90;;;;;;4947520;28;20123;-77
2020/12/21 00:23:55;;;;;;;12.70;5.72;;;1.00;99.90;;;;;;4946518;29;20678;-77
2020/12/21 00:26:21;;;;;;;13.35;6.38;;;1.00;99.90;;;;;;4954855;29;20043;-76
2020/12/21 00:28:47;;;;;;;9.75;5.82;;;1.00;99.90;;;;;;4954551;29;20042;-77
2020/12/21 00:31:20;;;;;;;12.88;6.20;;;0.90;99.90;;;;;;4950850;29;20666;-78
2020/12/21 00:33:46;;;;;;;14.00;6.30;;;1.00;99.90;;;;;;4941889;29;20036;-78
2020/12/21 00:36:12;;;;;;;11.32;5.97;;;1.00;99.90;;;;;;4931356;29;20090;-78
2020/12/21 00:38:38;;;;;;;15.27;6.82;;;0.90;99.90;;;;;;4934927;29;20036;-77
2020/12/21 00:41:17;;;;;;;13.30;5.68;;;1.00;99.90;;;;;;4944136;29;20039;-77
2020/12/21 00:43:46;;;;;;;13.93;6.63;;;0.90;99.90;;;;;;4943741;29;20050;-77
2020/12/21 00:46:14;;;;;;;11.43;6.53;;;1.00;99.90;;;;;;4954480;29;20038;-77
2020/12/21 00:48:41;;;;;;;11.57;6.15;;;1.00;99.90;;;;;;4954958;28;20390;-77
2020/12/21 00:51:07;;;;;;;14.60;6.20;;;0.90;99.90;;;;;;4952235;28;20433;-78
2020/12/21 00:53:33;;;;;;;14.57;6.10;;;0.80;99.90;;;;;;4938042;28;20030;-78
2020/12/21 00:56:06;;;;;;;14.48;6.95;;;0.80;99.90;;;;;;4935116;29;20501;-78
2020/12/21 00:58:33;;;;;;;19.00;6.78;;;0.80;99.90;;;;;;4940767;28;20073;-76
2020/12/21 01:01:00;;;;;;;18.10;7.00;;;0.90;99.90;;;;;;4946677;29;20047;-79
2020/12/21 01:03:26;;;;;;;12.70;6.05;;;0.90;99.90;;;;;;4944014;28;20050;-77
2020/12/21 01:05:55;;;;;;;13.95;5.97;;;0.90;99.90;;;;;;4953626;29;20023;-77
2020/12/21 01:08:20;;;;;;;14.25;7.40;;;0.90;99.90;;;;;;4952031;28;20035;-79
2020/12/21 01:13:23;;;;;;;11.55;5.68;;;0.90;99.90;;;;;;4948015;28;20051;-77
2020/12/21 01:15:49;;;;;;;18.02;7.32;;;0.90;99.90;;;;;;4953392;29;20560;-75
2020/12/21 01:18:14;;;;;;;12.02;6.35;;;0.90;99.90;;;;;;4953062;29;20442;-74
2020/12/21 01:20:41;;;;;;;15.30;7.10;;;0.80;99.90;;;;;;4952691;29;20058;-74
2020/12/21 01:23:07;;;;;;;15.10;6.63;;;0.90;99.90;;;;;;4935065;29;20039;-75
2020/12/21 01:25:33;;;;;;;14.15;6.53;;;0.90;99.90;;;;;;4949164;28;20027;-75
2020/12/21 01:27:58;;;;;;;15.40;6.68;;;0.90;99.90;;;;;;4944040;28;20075;-75
2020/12/21 01:30:24;;;;;;;19.50;7.72;;;0.90;99.90;;;;;;4933642;29;20110;-75
2020/12/21 01:32:50;;;;;;;17.67;7.93;;;0.90;99.90;;;;;;4945824;28;20031;-75
2020/12/21 01:35:16;;;;;;;15.55;6.90;;;1.00;99.90;;;;;;4953676;28;20086;-75
2020/12/21 01:37:43;;;;;;;12.68;6.20;;;0.90;99.90;;;;;;4935668;29;20056;-75
2020/12/21 01:40:10;;;;;;;18.48;6.72;;;1.00;99.90;;;;;;4935478;28;20039;-75
2020/12/21 01:42:36;;;;;;;14.15;7.25;;;1.00;99.90;;;;;;4933547;28;20541;-74
2020/12/21 01:45:04;;;;;;;14.63;6.53;;;1.00;99.90;;;;;;4948846;28;20038;-75
2020/12/21 01:47:30;;;;;;;16.42;6.88;;;1.10;99.90;;;;;;4952568;29;20042;-76
2020/12/21 01:49:56;;;;;;;19.25;8.38;;;1.00;99.90;;;;;;4953179;28;20028;-76
2020/12/21 01:52:22;;;;;;;17.67;7.32;;;1.00;99.90;;;;;;4948903;28;20685;-77
2020/12/21 01:54:48;;;;;;;17.80;6.57;;;1.00;99.90;;;;;;4952324;29;20085;-76
2020/12/21 01:57:15;;;;;;;15.55;6.88;;;1.00;99.90;;;;;;4938826;29;20046;-75
2020/12/21 01:59:41;;;;;;;15.13;6.20;;;1.00;99.90;;;;;;4931861;28;20048;-76
2020/12/21 02:02:08;;;;;;;16.60;8.13;;;1.10;99.90;;;;;;4941953;28;20140;-75
2020/12/21 02:04:33;;;;;;;15.77;7.07;;;1.10;99.90;;;;;;4947294;28;20039;-76
2020/12/21 02:07:01;;;;;;;16.00;6.93;;;1.10;99.90;;;;;;4939505;29;20038;-75
2020/12/21 02:09:27;;;;;;;18.67;8.15;;;1.10;99.90;;;;;;4933042;29;20039;-76
2020/12/21 02:11:54;;;;;;;20.08;8.07;;;1.10;99.90;;;;;;4934247;28;20047;-75
2020/12/21 02:14:20;;;;;;;18.48;8.73;;;1.10;99.90;;;;;;4945875;28;20042;-76
2020/12/21 02:16:46;;;;;;;16.98;7.22;;;1.10;99.90;;;;;;4949725;29;20037;-75
2020/12/21 02:19:11;;;;;;;16.52;7.05;;;1.10;99.90;;;;;;4920875;29;20393;-76
2020/12/21 02:21:37;;;;;;;17.67;7.22;;;1.10;99.90;;;;;;4950715;28;20043;-76
2020/12/21 02:24:03;;;;;;;15.32;7.18;;;1.00;99.90;;;;;;4949843;28;20031;-76
2020/12/21 02:26:29;;;;;;;15.50;7.43;;;1.00;99.90;;;;;;4953254;29;20047;-76
2020/12/21 02:28:58;;;;;;;14.43;6.60;;;1.10;99.90;;;;;;4952432;29;20088;-75
2020/12/21 02:31:24;;;;;;;17.30;7.30;;;1.00;99.90;;;;;;4951457;29;20078;-76
2020/12/21 02:33:50;;;;;;;17.95;8.07;;;1.00;99.90;;;;;;4944551;28;20024;-76
2020/12/21 02:36:16;;;;;;;19.40;8.55;;;1.10;99.90;;;;;;4947048;29;20027;-76
2020/12/21 02:38:42;;;;;;;20.95;8.32;;;1.10;99.90;;;;;;4939027;28;20027;-75
2020/12/21 02:41:11;;;;;;;20.45;7.78;;;1.10;99.90;;;;;;4933528;29;20067;-76
2020/12/21 02:43:37;;;;;;;19.77;8.63;;;1.10;99.90;;;;;;4945624;28;20035;-75
2020/12/21 02:46:05;;;;;;;18.33;8.93;;;1.00;99.90;;;;;;4949599;29;20027;-75
2020/12/21 02:48:31;;;;;;;17.92;8.05;;;1.10;99.90;;;;;;4932157;29;20023;-75
2020/12/21 02:50:57;;;;;;;22.55;7.55;;;1.10;99.90;;;;;;4940700;28;20027;-75
2020/12/21 02:53:22;;;;;;;19.88;8.32;;;1.20;99.90;;;;;;4946958;28;20031;-76
2020/12/21 02:55:48;;;;;;;19.70;8.10;;;1.10;99.90;;;;;;4943657;29;20486;-75
2020/12/21 02:58:14;;;;;;;16.80;7.15;;;1.20;99.90;;;;;;4952466;28;20067;-76
2020/12/21 03:00:40;;;;;;;20.50;8.45;;;1.20;99.90;;;;;;4952103;28;20505;-76
2020/12/21 03:03:06;;;;;;;22.13;8.35;;;1.20;99.90;;;;;;4945809;28;20163;-76
2020/12/21 03:05:32;;;;;;;18.52;8.18;;;1.20;99.90;;;;;;4952761;28;20027;-76
2020/12/21 03:08:00;;;;;;;19.80;7.50;;;1.20;99.90;;;;;;4935422;29;20624;-76
2020/12/21 03:10:27;;;;;;;19.67;8.25;;;1.20;99.90;;;;;;4952229;28;20031;-76
2020/12/21 03:12:53;;;;;;;21.35;7.93;;;1.20;99.90;;;;;;4949887;28;20043;-75
2020/12/21 03:15:19;;;;;;;21.23;8.77;;;1.30;99.90;;;;;;4926539;29;20155;-75
2020/12/21 03:17:45;;;;;;;23.13;8.52;;;1.30;99.90;;;;;;4947139;28;20050;-75
2020/12/21 03:20:10;;;;;;;20.98;8.93;;;1.30;99.90;;;;;;4932225;29;20035;-75
2020/12/21 03:22:36;;;;;;;18.00;8.30;;;1.20;99.90;;;;;;4937202;28;20042;-75
2020/12/21 03:25:02;;;;;;;22.90;8.32;;;1.10;99.90;;;;;;4954388;29;20035;-75
2020/12/21 03:27:28;;;;;;;19.42;8.25;;;1.20;99.90;;;;;;4955078;29;20034;-76
2020/12/21 03:29:54;;;;;;;19.35;8.52;;;1.20;99.90;;;;;;4938619;29;20020;-76
2020/12/21 03:32:20;;;;;;;19.23;7.78;;;1.20;99.90;;;;;;4936549;29;20050;-76
2020/12/21 03:34:45;;;;;;;20.70;7.90;;;1.20;99.90;;;;;;4947082;28;20090;-75
2020/12/21 03:37:11;;;;;;;19.55;8.02;;;1.30;99.90;;;;;;4952688;28;20111;-75
2020/12/21 03:39:37;;;;;;;19.10;7.93;;;1.30;99.90;;;;;;4935519;29;20681;-76
2020/12/21 03:42:03;;;;;;;19.58;7.72;;;1.30;99.90;;;;;;4937716;28;20028;-75
2020/12/21 03:44:30;;;;;;;19.55;7.32;;;1.30;99.90;;;;;;4950732;28;20035;-75
2020/12/21 03:46:56;;;;;;;23.77;9.73;;;1.40;99.90;;;;;;4946434;29;20063;-75
2020/12/21 03:49:22;;;;;;;21.08;8.55;;;1.30;99.90;;;;;;4937153;29;20063;-75
2020/12/21 03:51:47;;;;;;;24.40;9.13;;;1.30;99.90;;;;;;4937623;28;20463;-75
2020/12/21 03:54:13;;;;;;;23.98;8.52;;;1.30;99.90;;;;;;4925545;29;20117;-75
2020/12/21 03:56:43;;;;;;;19.67;8.02;;;1.30;99.90;;;;;;4953370;28;20105;-75
2020/12/21 03:59:10;;;;;;;24.40;9.10;;;1.30;99.90;;;;;;4955795;28;20038;-75
2020/12/21 04:01:37;;;;;;;24.70;8.23;;;1.30;99.90;;;;;;4952650;28;20079;-75
2020/12/21 04:04:07;;;;;;;21.35;8.57;;;1.30;99.90;;;;;;4946706;28;20039;-76
2020/12/21 04:06:36;;;;;;;17.45;7.20;;;1.30;99.90;;;;;;4954561;29;20446;-76
2020/12/21 04:09:04;;;;;;;18.10;7.95;;;1.30;99.90;;;;;;4955456;28;20023;-76
2020/12/21 04:11:29;;;;;;;19.85;8.48;;;1.30;99.90;;;;;;4942575;28;20134;-75
2020/12/21 04:13:55;;;;;;;17.88;8.68;;;1.30;99.90;;;;;;4936610;28;20132;-75
2020/12/21 04:16:21;;;;;;;17.58;8.73;;;1.30;99.90;;;;;;4949789;29;20043;-76
2020/12/21 04:18:47;;;;;;;18.80;7.38;;;1.40;99.90;;;;;;4941371;28;20031;-76
2020/12/21 04:21:13;;;;;;;17.70;8.00;;;1.40;99.90;;;;;;4946802;28;20110;-76
2020/12/21 04:23:40;;;;;;;22.15;8.80;;;1.40;99.90;;;;;;4952750;28;20035;-75
2020/12/21 04:26:07;;;;;;;19.63;8.60;;;1.40;99.90;;;;;;4950538;29;20035;-75
2020/12/21 04:28:33;;;;;;;23.65;8.63;;;1.40;99.90;;;;;;4921671;29;20068;-76
2020/12/21 04:31:06;;;;;;;21.90;8.65;;;1.30;99.90;;;;;;4953669;28;20036;-76
2020/12/21 04:33:34;;;;;;;22.40;9.43;;;1.40;99.90;;;;;;4949640;28;20031;-75
2020/12/21 04:36:00;;;;;;;25.02;9.48;;;1.40;99.90;;;;;;4947735;28;20151;-75
2020/12/21 04:38:26;;;;;;;22.02;8.68;;;1.30;99.90;;;;;;4953923;28;20382;-75
2020/12/21 04:40:56;;;;;;;23.05;9.05;;;1.40;99.90;;;;;;4954577;28;20038;-75
2020/12/21 04:43:23;;;;;;;21.38;8.88;;;1.30;99.90;;;;;;4947940;28;20032;-75
2020/12/21 04:45:52;;;;;;;20.35;8.50;;;1.40;99.90;;;;;;4951983;29;20032;-75
2020/12/21 04:48:21;;;;;;;21.88;8.60;;;1.40;99.90;;;;;;4935618;29;20422;-75
2020/12/21 04:50:51;;;;;;;23.23;8.77;;;1.40;99.90;;;;;;4935037;28;20035;-75
2020/12/21 04:53:18;;;;;;;25.00;9.23;;;1.40;99.90;;;;;;4939261;28;20086;-75
2020/12/21 04:55:44;;;;;;;25.20;8.90;;;1.30;99.90;;;;;;4947579;28;20031;-75
2020/12/21 04:58:09;;;;;;;24.13;9.48;;;1.30;99.90;;;;;;4945897;28;20036;-75
2020/12/21 05:00:35;;;;;;;21.58;9.18;;;1.30;99.90;;;;;;4935217;29;20043;-75
2020/12/21 05:03:04;;;;;;;21.30;8.13;;;1.30;99.90;;;;;;4939818;28;20031;-76
2020/12/21 05:05:35;;;;;;;22.27;8.88;;;1.30;99.90;;;;;;4951132;29;20492;-75
2020/12/21 05:08:15;;;;;;;21.77;8.43;;;1.30;99.90;;;;;;4935119;29;20039;-75
2020/12/21 05:10:45;;;;;;;21.15;7.88;;;1.40;99.90;;;;;;4936102;28;20024;-75
2020/12/21 05:13:14;;;;;;;24.73;8.32;;;1.40;99.90;;;;;;4936913;28;20119;-75
2020/12/21 05:15:39;;;;;;;19.23;8.05;;;1.40;99.90;;;;;;4944063;28;20027;-75
2020/12/21 05:18:10;;;;;;;19.50;7.70;;;1.40;99.90;;;;;;4945739;28;20036;-75
2020/12/21 05:20:40;;;;;;;22.30;8.35;;;1.40;99.90;;;;;;4918170;29;20043;-75
2020/12/21 05:23:15;;;;;;;19.65;7.95;;;1.40;99.90;;;;;;4943023;28;20039;-75
2020/12/21 05:25:41;;;;;;;22.13;8.88;;;1.40;99.90;;;;;;4950996;28;20050;-75
2020/12/21 05:28:14;;;;;;;23.05;7.70;;;1.50;99.90;;;;;;4945310;29;20035;-75
2020/12/21 05:31:09;;;;;;;22.38;7.82;;;1.50;99.90;;;;;;4947610;28;20032;-75
2020/12/21 05:33:40;;;;;;;21.17;8.07;;;1.40;99.90;;;;;;4939939;28;20468;-75
2020/12/21 05:36:09;;;;;;;20.23;7.28;;;1.40;99.90;;;;;;4950255;29;20019;-75
2020/12/21 05:38:35;;;;;;;23.92;8.93;;;1.40;99.90;;;;;;4941020;28;20418;-75
2020/12/21 05:41:17;;;;;;;19.20;8.68;;;1.40;99.90;;;;;;4933240;29;20112;-75
2020/12/21 05:43:44;;;;;;;22.38;8.48;;;1.50;99.90;;;;;;4942685;28;20114;-74
2020/12/21 05:46:14;;;;;;;19.70;8.80;;;1.40;99.90;;;;;;4944167;28;20055;-75
2020/12/21 05:48:42;;;;;;;16.77;6.70;;;1.40;99.90;;;;;;4934487;29;20031;-75
2020/12/21 05:51:10;;;;;;;22.20;8.07;;;1.40;99.90;;;;;;4934031;28;20023;-75
2020/12/21 05:53:41;;;;;;;22.45;7.90;;;1.40;99.90;;;;;;4939623;28;20462;-74
2020/12/21 05:56:07;;;;;;;21.30;7.43;;;1.40;99.90;;;;;;4953276;29;20031;-74
2020/12/21 05:58:36;;;;;;;19.20;7.90;;;1.40;99.90;;;;;;4938949;29;20127;-75
2020/12/21 06:01:07;;;;;;;16.45;7.43;;;1.40;99.90;;;;;;4934065;29;20046;-75
2020/12/21 06:03:38;;;;;;;22.27;9.13;;;1.40;99.90;;;;;;4944676;28;20051;-75
2020/12/21 06:06:11;;;;;;;21.83;8.48;;;1.40;99.90;;;;;;4948846;29;20099;-75
2020/12/21 06:08:37;;;;;;;21.95;7.60;;;1.40;99.90;;;;;;4933039;29;20039;-75
2020/12/21 06:11:15;;;;;;;19.85;7.90;;;1.40;99.90;;;;;;4934930;28;20019;-75
2020/12/21 06:13:46;;;;;;;24.17;7.90;;;1.40;99.90;;;;;;4940411;28;20474;-74
2020/12/21 06:16:15;;;;;;;20.98;7.20;;;1.40;99.90;;;;;;4946319;28;20031;-75
2020/12/21 06:18:41;;;;;;;16.92;8.07;;;1.40;99.90;;;;;;4948118;28;20115;-75
2020/12/21 06:21:06;;;;;;;21.80;8.32;;;1.50;99.90;;;;;;4952983;28;20472;-74
2020/12/21 06:23:37;;;;;;;16.35;7.53;;;1.50;99.90;;;;;;4940736;28;20039;-75
2020/12/21 06:26:13;;;;;;;22.20;8.02;;;1.50;99.90;;;;;;4948517;29;20075;-74
2020/12/21 06:28:39;;;;;;;25.23;8.73;;;1.60;99.90;;;;;;4946351;29;20035;-75
2020/12/21 06:31:18;;;;;;;21.85;8.05;;;1.60;99.90;;;;;;4942501;29;20479;-75
2020/12/21 06:33:46;;;;;;;18.00;8.07;;;1.50;99.90;;;;;;4939790;28;20023;-75
2020/12/21 06:36:12;;;;;;;24.27;8.85;;;1.50;99.90;;;;;;4949937;28;20027;-74
2020/12/21 06:38:49;;;;;;;18.73;7.45;;;1.50;99.90;;;;;;4938673;29;20070;-75
2020/12/21 06:41:23;;;;;;;19.27;7.03;;;1.50;99.90;;;;;;4933736;28;20043;-75
2020/12/21 06:44:07;;;;;;;18.15;7.35;;;1.50;99.90;;;;;;4936688;29;20043;-74
2020/12/21 06:46:36;;;;;;;20.30;8.52;;;1.50;99.90;;;;;;4945122;28;20064;-74
2020/12/21 06:49:04;;;;;;;23.77;8.05;;;1.50;99.90;;;;;;4933338;29;20434;-75
2020/12/21 06:51:30;;;;;;;22.77;8.23;;;1.50;99.90;;;;;;4934430;28;20136;-74
2020/12/21 06:54:04;;;;;;;18.05;7.97;;;1.50;99.90;;;;;;4939355;28;20042;-74
2020/12/21 06:56:30;;;;;;;20.52;7.95;;;1.50;99.90;;;;;;4951521;28;20042;-75
2020/12/21 06:58:57;;;;;;;21.40;7.53;;;1.50;99.90;;;;;;4934533;29;20452;-75
2020/12/21 07:01:24;;;;;;;15.00;7.43;;;1.60;99.90;;;;;;4931736;28;20131;-75
2020/12/21 07:03:50;;;;;;;19.67;8.45;;;1.50;99.90;;;;;;4944323;28;20031;-75
2020/12/21 07:06:16;;;;;;;19.77;8.38;;;1.60;99.90;;;;;;4946685;28;20059;-74
2020/12/21 07:08:43;;;;;;;17.88;7.43;;;1.60;99.90;;;;;;4933146;29;20483;-74
2020/12/21 07:11:20;;;;;;;19.58;8.38;;;1.60;99.90;;;;;;4933667;28;20111;-74
2020/12/21 07:13:48;;;;;;;19.83;8.20;;;1.60;99.90;;;;;;4924646;28;20119;-75
2020/12/21 07:16:16;;;;;;;20.95;7.72;;;1.60;99.90;;;;;;4947209;28;20107;-75
2020/12/21 07:18:42;;;;;;;23.98;8.25;;;1.60;99.90;;;;;;4942330;29;20051;-74
2020/12/21 07:21:11;;;;;;;21.73;7.90;;;1.60;99.90;;;;;;4946461;29;20059;-74
2020/12/21 07:23:38;;;;;;;23.20;8.00;;;1.60;99.90;;;;;;4943157;28;20059;-75
2020/12/21 07:26:04;;;;;;;19.70;8.13;;;1.60;99.90;;;;;;4946106;29;20066;-75
2020/12/21 07:28:30;;;;;;;22.25;8.57;;;1.60;99.90;;;;;;4946748;29;20035;-75
2020/12/21 07:31:15;;;;;;;20.73;8.77;;;1.60;99.90;;;;;;4958605;23;20432;-76
2020/12/21 07:33:54;;;;;;;23.38;8.48;;;1.60;99.90;;;;;;4948492;28;20101;-76
2020/12/21 07:36:22;;;;;;;26.02;8.10;;;1.60;99.90;;;;;;4950345;29;20110;-76
2020/12/21 07:38:48;;;;;;;21.05;8.75;;;1.60;99.90;;;;;;4951870;28;20036;-76
2020/12/21 07:41:16;;;;;;;22.70;8.73;;;1.60;99.90;;;;;;4948465;28;20040;-75
2020/12/21 07:43:57;;;;;;;21.80;8.15;;;1.60;99.90;;;;;;4946157;28;20027;-75
2020/12/21 07:46:25;;;;;;;21.92;8.23;;;1.60;99.90;;;;;;4948780;29;20054;-74
2020/12/21 07:48:54;;;;;;;17.02;7.80;;;1.60;99.90;;;;;;4951987;28;20042;-75
2020/12/21 07:51:22;;;;;;;25.55;8.75;;;1.60;99.90;;;;;;4948854;28;20031;-76
2020/12/21 07:53:48;;;;;;;16.35;7.10;;;1.70;99.90;;;;;;4955592;28;20110;-75
2020/12/21 07:56:17;;;;;;;26.13;8.77;;;1.70;99.90;;;;;;4950228;28;20043;-75
2020/12/21 07:58:44;;;;;;;20.92;8.30;;;1.80;99.90;;;;;;4951548;28;20051;-75
2020/12/21 08:01:10;;;;;;;20.40;8.63;;;1.70;99.90;;;;;;4949444;28;20032;-75
2020/12/21 08:03:40;;;;;;;22.10;8.13;;;1.70;99.90;;;;;;4948245;28;20384;-76
2020/12/21 08:06:08;;;;;;;24.48;8.73;;;1.70;99.90;;;;;;4952412;28;20031;-76
2020/12/21 08:08:35;;;;;;;22.30;8.63;;;1.80;99.90;;;;;;4953103;28;20031;-75
2020/12/21 08:11:02;;;;;;;18.83;8.25;;;1.80;99.90;;;;;;4953134;28;20034;-76
2020/12/21 08:13:28;;;;;;;22.25;8.85;;;1.80;99.90;;;;;;4954828;28;20059;-75
2020/12/21 08:16:05;;;;;;;20.70;8.27;;;1.80;99.90;;;;;;4957823;28;20120;-76
2020/12/21 08:18:31;;;;;;;20.25;7.97;;;1.80;99.90;;;;;;4957413;28;20034;-76
2020/12/21 08:20:57;;;;;;;27.38;8.32;;;1.80;99.90;;;;;;4938398;29;20540;-76
2020/12/21 08:23:24;;;;;;;24.20;9.00;;;1.80;99.90;;;;;;4947064;28;20449;-76
2020/12/21 08:25:50;;;;;;;19.83;8.25;;;1.80;99.90;;;;;;4951854;28;20149;-75
2020/12/21 08:28:34;;;;;;;19.02;8.52;;;1.80;99.90;;;;;;4954611;28;20549;-77
2020/12/21 08:31:08;;;;;;;16.90;7.82;;;1.80;99.90;;;;;;4951162;28;20038;-77
2020/12/21 08:33:36;;;;;;;21.08;8.63;;;1.90;99.90;;;;;;4953917;28;20039;-77
2020/12/21 08:36:21;;;;;;;20.15;7.53;;;1.90;99.90;;;;;;4953912;28;20039;-77
2020/12/21 08:38:48;;;;;;;17.77;6.85;;;2.00;99.90;;;;;;4954337;28;20078;-76
2020/12/21 08:41:14;;;;;;;20.00;8.10;;;2.00;99.90;;;;;;4935460;28;20035;-77
2020/12/21 08:43:40;;;;;;;17.48;7.57;;;2.00;99.90;;;;;;4950643;28;20020;-77
2020/12/21 08:46:11;;;;;;;19.50;8.25;;;2.00;99.90;;;;;;4949610;28;20020;-78
2020/12/21 08:48:42;;;;;;;18.08;7.28;;;2.00;99.90;;;;;;4921096;28;20032;-77
2020/12/21 08:51:10;;;;;;;16.70;7.20;;;2.00;99.90;;;;;;4954327;28;20038;-75
2020/12/21 08:53:36;;;;;;;15.80;6.97;;;2.00;99.90;;;;;;4952508;28;20094;-77
2020/12/21 08:56:12;;;;;;;17.85;8.52;;;2.00;99.90;;;;;;4966154;28;20183;-77
2020/12/21 08:58:38;;;;;;;17.13;7.65;;;2.10;99.90;;;;;;4937242;28;20039;-76
2020/12/21 09:01:08;;;;;;;20.50;7.53;;;2.10;99.90;;;;;;4942169;28;20035;-76
2020/12/21 09:03:34;;;;;;;25.27;7.82;;;2.10;99.90;;;;;;4952723;29;20027;-76
2020/12/21 09:06:01;;;;;;;17.98;7.63;;;2.00;99.90;;;;;;4955016;28;20466;-76
2020/12/21 09:08:28;;;;;;;18.50;7.78;;;2.00;99.90;;;;;;4954304;28;20039;-77
2020/12/21 09:10:54;;;;;;;19.00;7.35;;;2.10;99.90;;;;;;4952824;28;20106;-77
2020/12/21 09:13:20;;;;;;;19.98;7.43;;;2.10;99.90;;;;;;4951837;29;20386;-76
2020/12/21 09:15:45;;;;;;;20.98;7.47;;;2.10;99.90;;;;;;4951683;29;20042;-76
2020/12/21 09:18:13;;;;;;;21.55;7.03;;;2.10;99.90;;;;;;4954301;28;20130;-76
2020/12/21 09:20:41;;;;;;;18.63;7.25;;;2.10;99.90;;;;;;4935474;28;20043;-76
2020/12/21 09:23:07;;;;;;;19.02;7.75;;;2.10;99.90;;;;;;4951431;28;20114;-77
2020/12/21 09:25:33;;;;;;;22.15;8.07;;;2.10;99.90;;;;;;4956670;28;20146;-76
2020/12/21 09:27:58;;;;;;;18.10;7.72;;;2.10;99.90;;;;;;4961921;28;20035;-77
2020/12/21 09:30:24;;;;;;;17.70;7.88;;;2.20;99.90;;;;;;4954057;28;20055;-77
2020/12/21 09:32:50;;;;;;;19.90;7.35;;;2.20;99.90;;;;;;4951454;28;20035;-77
2020/12/21 09:35:15;;;;;;;20.13;9.13;;;2.20;99.90;;;;;;4953023;29;20047;-77
2020/12/21 09:37:41;;;;;;;21.00;8.48;;;2.20;99.90;;;;;;4954727;28;20090;-77
2020/12/21 09:40:07;;;;;;;18.33;7.50;;;2.20;99.90;;;;;;4953251;28;20039;-76
2020/12/21 09:42:32;;;;;;;17.08;8.05;;;2.30;99.90;;;;;;4950362;28;20035;-76
2020/12/21 09:44:58;;;;;;;20.58;8.20;;;2.30;99.90;;;;;;4953986;28;20035;-77
2020/12/21 09:47:24;;;;;;;20.35;7.78;;;2.30;99.90;;;;;;4954167;28;20063;-76
2020/12/21 09:49:50;;;;;;;22.73;8.20;;;2.30;99.90;;;;;;4949887;28;20106;-76
2020/12/21 09:52:15;;;;;;;17.73;6.85;;;2.30;99.90;;;;;;4949635;28;20027;-76
2020/12/21 09:54:41;;;;;;;17.40;7.70;;;2.30;99.90;;;;;;4950911;29;20043;-77
2020/12/21 09:57:07;;;;;;;17.70;7.50;;;2.30;99.90;;;;;;4953407;29;20126;-77
2020/12/21 09:59:32;;;;;;;21.63;7.82;;;2.40;99.90;;;;;;4952295;29;20034;-76
2020/12/21 10:01:58;;;;;;;16.10;7.45;;;2.40;99.90;;;;;;4951237;28;20478;-76
2020/12/21 10:04:24;;;;;;;18.20;7.85;;;2.50;99.90;;;;;;4953747;28;20028;-76
2020/12/21 10:06:50;;;;;;;19.80;7.47;;;2.50;99.90;;;;;;4963169;28;20034;-76
2020/12/21 10:09:16;;;;;;;18.85;7.05;;;2.60;99.90;;;;;;4951400;28;20031;-76
2020/12/21 10:11:42;;;;;;;22.15;8.88;;;2.60;99.90;;;;;;4949565;28;20036;-76
2020/12/21 10:14:08;;;;;;;18.73;7.43;;;2.60;99.90;;;;;;4951790;29;20038;-76
2020/12/21 10:16:33;;;;;;;19.05;7.75;;;2.50;99.90;;;;;;4952531;28;20034;-75
2020/12/21 10:18:59;;;;;;;16.67;7.80;;;2.60;99.90;;;;;;4959053;28;20174;-77
2020/12/21 10:21:25;;;;;;;17.90;7.90;;;2.60;99.90;;;;;;4947208;28;20032;-76
2020/12/21 10:23:51;;;;;;;19.40;7.53;;;2.60;99.90;;;;;;4945390;28;20038;-76
2020/12/21 10:26:16;;;;;;;20.40;7.90;;;2.60;99.90;;;;;;4953984;28;20506;-76
2020/12/21 10:28:42;;;;;;;19.05;7.45;;;2.60;99.90;;;;;;4952647;28;20493;-76
2020/12/21 10:31:08;;;;;;;16.02;7.50;;;2.60;99.90;;;;;;4947500;28;20494;-76
2020/12/21 10:33:34;;;;;;;21.02;9.13;;;2.70;99.90;;;;;;4951087;28;20493;-77
2020/12/21 10:35:59;;;;;;;19.92;7.60;;;2.70;99.90;;;;;;4952018;29;20082;-76
2020/12/21 10:38:25;;;;;;;15.73;7.10;;;2.70;99.90;;;;;;4952675;28;20972;-76
2020/12/21 10:40:51;;;;;;;16.08;7.10;;;2.80;99.90;;;;;;4950791;28;20517;-76
2020/12/21 10:43:16;;;;;;;17.38;7.50;;;2.80;99.90;;;;;;4951415;28;20034;-76
2020/12/21 10:45:42;;;;;;;15.15;7.45;;;2.70;99.90;;;;;;4955680;28;20122;-76
2020/12/21 10:48:08;;;;;;;15.15;7.95;;;2.80;99.90;;;;;;4958448;28;20074;-77
2020/12/21 10:50:34;;;;;;;18.33;7.57;;;2.80;99.90;;;;;;4952575;28;20036;-76
2020/12/21 10:52:59;;;;;;;20.15;7.10;;;2.80;99.90;;;;;;4949318;28;20051;-77
2020/12/21 10:55:25;;;;;;;19.98;8.02;;;2.80;99.90;;;;;;4952800;28;20063;-76
2020/12/21 10:57:51;;;;;;;16.92;7.57;;;2.90;99.90;;;;;;4950947;28;20046;-75
2020/12/21 11:00:17;;;;;;;18.92;8.18;;;2.90;99.90;;;;;;4950935;28;20035;-76
2020/12/21 11:02:42;;;;;;;23.35;8.70;;;3.00;99.90;;;;;;4947825;28;20032;-76
2020/12/21 11:05:10;;;;;;;16.88;7.78;;;3.10;99.90;;;;;;4946638;28;20101;-76
2020/12/21 11:07:40;;;;;;;23.05;9.48;;;3.10;99.90;;;;;;4945118;29;20031;-77
2020/12/21 11:10:08;;;;;;;19.98;9.60;;;3.10;99.90;;;;;;4931511;29;20031;-76
2020/12/21 11:12:35;;;;;;;22.83;9.02;;;3.10;99.90;;;;;;4947308;28;20028;-77
2020/12/21 11:15:01;;;;;;;20.85;8.80;;;3.10;99.90;;;;;;4949517;28;20081;-77
2020/12/21 11:17:26;;;;;;;18.75;9.30;;;3.10;99.90;;;;;;4945077;28;20067;-76
2020/12/21 11:19:52;;;;;;;20.63;8.95;;;3.20;99.90;;;;;;4940758;29;20028;-74
2020/12/21 11:22:18;;;;;;;20.30;8.52;;;3.20;99.90;;;;;;4941924;28;20039;-75
2020/12/21 11:24:44;;;;;;;19.23;8.82;;;3.10;99.90;;;;;;4948272;28;20034;-75
2020/12/21 11:27:09;;;;;;;19.52;9.48;;;3.10;99.90;;;;;;4947773;28;20031;-76
2020/12/21 11:29:35;;;;;;;21.85;8.95;;;3.10;99.90;;;;;;4943362;28;20062;-77
2020/12/21 11:32:01;;;;;;;18.23;8.80;;;3.10;99.90;;;;;;4939863;28;20035;-76
2020/12/21 11:34:27;;;;;;;19.48;8.27;;;3.10;99.90;;;;;;4945718;28;20086;-76
2020/12/21 11:36:52;;;;;;;23.88;10.38;;;3.10;99.90;;;;;;4945312;28;20035;-77
2020/12/21 11:39:18;;;;;;;20.40;9.02;;;3.10;99.90;;;;;;4946618;29;20039;-76
2020/12/21 11:41:44;;;;;;;23.42;9.95;;;3.10;99.90;;;;;;4929081;28;20063;-77
2020/12/21 11:44:10;;;;;;;21.65;8.88;;;3.10;99.90;;;;;;4964841;28;20027;-77
2020/12/21 11:46:37;;;;;;;22.25;9.73;;;3.10;99.90;;;;;;4952019;29;20490;-77
2020/12/21 11:49:04;;;;;;;22.70;9.57;;;3.20;99.90;;;;;;4954470;28;20417;-77
2020/12/21 11:51:30;;;;;;;20.92;9.68;;;3.10;99.90;;;;;;4954123;28;20533;-76
2020/12/21 11:53:56;;;;;;;21.20;8.93;;;3.10;99.90;;;;;;4949490;28;20036;-76
2020/12/21 11:56:22;;;;;;;23.23;9.48;;;3.10;99.90;;;;;;4943541;29;20826;-76
2020/12/21 11:58:48;;;;;;;18.27;8.10;;;3.10;99.90;;;;;;4942030;29;20043;-76
2020/12/21 12:01:18;;;;;;;20.83;9.43;;;3.10;99.90;;;;;;4945212;29;20032;-76
2020/12/21 12:03:44;;;;;;;18.67;8.43;;;3.10;99.90;;;;;;4949098;28;20023;-76
2020/12/21 12:06:10;;;;;;;22.95;9.27;;;3.10;99.90;;;;;;4945269;29;20505;-75
2020/12/21 12:08:36;;;;;;;19.48;7.95;;;3.10;99.90;;;;;;4934105;28;20358;-75
2020/12/21 12:11:03;;;;;;;23.75;9.60;;;3.10;99.90;;;;;;4951555;28;20023;-76
2020/12/21 12:13:29;;;;;;;17.92;8.73;;;3.10;99.90;;;;;;4951107;29;20485;-76
2020/12/21 12:15:54;;;;;;;22.75;8.20;;;3.10;99.90;;;;;;4953337;29;20042;-76
2020/12/21 12:18:20;;;;;;;20.73;8.27;;;3.00;99.90;;;;;;4951962;29;20850;-75
2020/12/21 12:20:46;;;;;;;21.55;8.98;;;3.00;99.90;;;;;;4952195;29;20075;-76
2020/12/21 12:23:11;;;;;;;21.00;8.10;;;3.00;99.90;;;;;;4951020;28;20039;-76
2020/12/21 12:25:37;;;;;;;19.90;9.07;;;2.90;99.90;;;;;;4952175;29;20039;-76
2020/12/21 12:28:03;;;;;;;23.92;9.00;;;3.00;99.90;;;;;;4951366;28;20401;-75
2020/12/21 12:30:29;;;;;;;24.77;9.40;;;3.00;99.90;;;;;;4946656;28;20032;-76
2020/12/21 12:32:55;;;;;;;23.15;9.40;;;3.00;99.90;;;;;;4944426;28;20154;-76
2020/12/21 12:35:20;;;;;;;22.20;8.98;;;3.00;99.90;;;;;;4951759;28;20038;-75
2020/12/21 12:37:46;;;;;;;22.15;9.65;;;3.00;99.90;;;;;;4952089;29;20437;-75
2020/12/21 12:40:12;;;;;;;22.23;9.40;;;3.00;99.90;;;;;;4950622;28;20057;-75
2020/12/21 12:42:38;;;;;;;19.90;8.30;;;3.00;99.90;;;;;;4949784;28;20110;-75
2020/12/21 12:45:05;;;;;;;22.92;9.13;;;3.00;99.90;;;;;;4949780;28;20202;-75
2020/12/21 12:47:31;;;;;;;25.30;9.65;;;3.00;99.90;;;;;;4951994;29;20054;-75
2020/12/21 12:49:57;;;;;;;19.73;8.45;;;3.10;99.90;;;;;;4950302;28;20110;-76
2020/12/21 12:52:23;;;;;;;18.38;8.07;;;3.10;99.90;;;;;;4950762;28;20186;-76